sensor_id;sensor_type;location;lat;lon;timestamp;temperature;humidity
26278;DHT22;14000;52.056;8.510;2022-12-18T00:02:13;-9.30;99.90
26278;DHT22;14000;52.056;8.510;2022-12-18T00:04:38;-9.30;99.90
26278;DHT22;14000;52.056;8.510;2022-12-18T00:07:04;-9.30;99.90
26278;DHT22;14000;52.056;8.510;2022-12-18T00:09:29;-9.30;99.90
26278;DHT22;14000;52.056;8.510;2022-12-18T00:11:55;-9.30;99.90
26278;DHT22;14000;52.056;8.510;2022-12-18T00:14:21;-9.30;99.90
26278;DHT22;14000;52.056;8.510;2022-12-18T00:16:46;-9.40;99.90
26278;DHT22;14000;52.056;8.510;2022-12-18T00:19:13;-9.40;99.90
26278;DHT22;14000;52.056;8.510;2022-12-18T00:21:39;-9.40;99.90
26278;DHT22;14000;52.056;8.510;2022-12-18T00:24:05;-9.40;99.90
26278;DHT22;14000;52.056;8.510;2022-12-18T00:26:32;-9.40;99.90
26278;DHT22;14000;52.056;8.510;2022-12-18T00:29:00;-9.40;99.90
26278;DHT22;14000;52.056;8.510;2022-12-18T00:31:26;-9.40;99.90
26278;DHT22;14000;52.056;8.510;2022-12-18T00:33:56;-9.40;99.90
26278;DHT22;14000;52.056;8.510;2022-12-18T00:36:28;-9.40;99.90
26278;DHT22;14000;52.056;8.510;2022-12-18T00:38:55;-9.40;99.90
26278;DHT22;14000;52.056;8.510;2022-12-18T00:41:22;-9.40;99.90
26278;DHT22;14000;52.056;8.510;2022-12-18T00:44:09;-9.40;99.90
26278;DHT22;14000;52.056;8.510;2022-12-18T00:46:35;-9.40;99.90
26278;DHT22;14000;52.056;8.510;2022-12-18T00:49:01;-9.40;99.90
26278;DHT22;14000;52.056;8.510;2022-12-18T00:51:27;-9.40;99.90
26278;DHT22;14000;52.056;8.510;2022-12-18T00:53:53;-9.40;99.90
26278;DHT22;14000;52.056;8.510;2022-12-18T00:56:18;-9.40;99.90
26278;DHT22;14000;52.056;8.510;2022-12-18T00:58:44;-9.40;99.90
26278;DHT22;14000;52.056;8.510;2022-12-18T01:01:10;-9.40;99.90
26278;DHT22;14000;52.056;8.510;2022-12-18T01:03:35;-9.40;99.90
26278;DHT22;14000;52.056;8.510;2022-12-18T01:06:09;-9.40;99.90
26278;DHT22;14000;52.056;8.510;2022-12-18T01:08:35;-9.40;99.90
26278;DHT22;14000;52.056;8.510;2022-12-18T01:11:06;-9.40;99.90
26278;DHT22;14000;52.056;8.510;2022-12-18T01:13:32;-9.40;99.90
26278;DHT22;14000;52.056;8.510;2022-12-18T01:15:57;-9.40;99.90
26278;DHT22;14000;52.056;8.510;2022-12-18T01:18:23;-9.40;99.90
26278;DHT22;14000;52.056;8.510;2022-12-18T01:20:49;-9.50;99.90
26278;DHT22;14000;52.056;8.510;2022-12-18T01:23:14;-9.50;99.90
26278;DHT22;14000;52.056;8.510;2022-12-18T01:25:40;-9.50;99.90
26278;DHT22;14000;52.056;8.510;2022-12-18T01:28:05;-9.50;99.90
26278;DHT22;14000;52.056;8.510;2022-12-18T01:30:31;-9.50;99.90
26278;DHT22;14000;52.056;8.510;2022-12-18T01:32:56;-9.50;99.90
26278;DHT22;14000;52.056;8.510;2022-12-18T01:35:22;-9.50;99.90
26278;DHT22;14000;52.056;8.510;2022-12-18T01:37:48;-9.60;99.90
26278;DHT22;14000;52.056;8.510;2022-12-18T01:40:13;-9.60;99.90
26278;DHT22;14000;52.056;8.510;2022-12-18T01:42:39;-9.50;99.90
26278;DHT22;14000;52.056;8.510;2022-12-18T01:47:51;-9.50;99.90
26278;DHT22;14000;52.056;8.510;2022-12-18T01:52:55;-9.50;99.90
26278;DHT22;14000;52.056;8.510;2022-12-18T01:55:26;-9.50;99.90
26278;DHT22;14000;52.056;8.510;2022-12-18T01:57:55;-9.50;99.90
26278;DHT22;14000;52.056;8.510;2022-12-18T02:00:23;-9.50;99.90
26278;DHT22;14000;52.056;8.510;2022-12-18T02:02:48;-9.50;99.90
26278;DHT22;14000;52.056;8.510;2022-12-18T02:08:21;-9.60;99.90
26278;DHT22;14000;52.056;8.510;2022-12-18T02:13:31;-9.60;99.90
26278;DHT22;14000;52.056;8.510;2022-12-18T02:16:21;-9.60;99.90
26278;DHT22;14000;52.056;8.510;2022-12-18T02:18:53;-9.60;99.90
26278;DHT22;14000;52.056;8.510;2022-12-18T02:24:27;-9.60;99.90
26278;DHT22;14000;52.056;8.510;2022-12-18T02:27:00;-9.60;99.90
26278;DHT22;14000;52.056;8.510;2022-12-18T02:29:38;-9.60;99.90
26278;DHT22;14000;52.056;8.510;2022-12-18T02:32:08;-9.70;99.90
26278;DHT22;14000;52.056;8.510;2022-12-18T02:34:39;-9.70;99.90
26278;DHT22;14000;52.056;8.510;2022-12-18T02:37:10;-9.70;99.90
26278;DHT22;14000;52.056;8.510;2022-12-18T02:39:38;-9.80;99.90
26278;DHT22;14000;52.056;8.510;2022-12-18T02:42:05;-9.80;99.90
26278;DHT22;14000;52.056;8.510;2022-12-18T02:44:35;-9.80;99.90
26278;DHT22;14000;52.056;8.510;2022-12-18T02:47:10;-9.80;99.90
26278;DHT22;14000;52.056;8.510;2022-12-18T02:49:57;-9.90;99.90
26278;DHT22;14000;52.056;8.510;2022-12-18T03:00:41;-10.00;99.90
26278;DHT22;14000;52.056;8.510;2022-12-18T03:03:18;-10.00;99.90
26278;DHT22;14000;52.056;8.510;2022-12-18T03:06:08;-10.00;99.90
26278;DHT22;14000;52.056;8.510;2022-12-18T03:08:43;-10.10;99.90
26278;DHT22;14000;52.056;8.510;2022-12-18T03:11:12;-10.00;99.90
26278;DHT22;14000;52.056;8.510;2022-12-18T03:13:45;-10.00;99.90
26278;DHT22;14000;52.056;8.510;2022-12-18T03:16:22;-10.00;99.90
26278;DHT22;14000;52.056;8.510;2022-12-18T03:18:53;-10.00;99.90
26278;DHT22;14000;52.056;8.510;2022-12-18T03:21:25;-10.00;99.90
26278;DHT22;14000;52.056;8.510;2022-12-18T03:23:52;-10.00;99.90
26278;DHT22;14000;52.056;8.510;2022-12-18T03:26:22;-10.00;99.90
26278;DHT22;14000;52.056;8.510;2022-12-18T03:28:52;-10.00;99.90
26278;DHT22;14000;52.056;8.510;2022-12-18T03:31:20;-10.00;99.90
26278;DHT22;14000;52.056;8.510;2022-12-18T03:33:54;-10.00;99.90
26278;DHT22;14000;52.056;8.510;2022-12-18T03:36:20;-10.10;99.90
26278;DHT22;14000;52.056;8.510;2022-12-18T03:38:47;-10.10;99.90
26278;DHT22;14000;52.056;8.510;2022-12-18T03:44:14;-10.10;99.90
26278;DHT22;14000;52.056;8.510;2022-12-18T03:49:35;-10.10;99.90
26278;DHT22;14000;52.056;8.510;2022-12-18T03:52:13;-10.10;99.90
26278;DHT22;14000;52.056;8.510;2022-12-18T03:54:42;-10.10;99.90
26278;DHT22;14000;52.056;8.510;2022-12-18T03:57:19;-10.20;99.90
26278;DHT22;14000;52.056;8.510;2022-12-18T03:59:50;-10.20;99.90
26278;DHT22;14000;52.056;8.510;2022-12-18T04:02:18;-10.20;99.90
26278;DHT22;14000;52.056;8.510;2022-12-18T04:04:47;-10.30;99.90
26278;DHT22;14000;52.056;8.510;2022-12-18T04:07:14;-10.30;99.90
26278;DHT22;14000;52.056;8.510;2022-12-18T04:09:41;-10.30;99.90
26278;DHT22;14000;52.056;8.510;2022-12-18T04:12:09;-10.40;99.90
26278;DHT22;14000;52.056;8.510;2022-12-18T04:14:35;-10.40;99.90
26278;DHT22;14000;52.056;8.510;2022-12-18T04:17:02;-10.40;99.90
26278;DHT22;14000;52.056;8.510;2022-12-18T04:19:30;-10.40;99.90
26278;DHT22;14000;52.056;8.510;2022-12-18T04:21:56;-10.40;99.90
26278;DHT22;14000;52.056;8.510;2022-12-18T04:24:21;-10.40;99.90
26278;DHT22;14000;52.056;8.510;2022-12-18T04:26:47;-10.40;99.90
26278;DHT22;14000;52.056;8.510;2022-12-18T04:29:12;-10.50;99.90
26278;DHT22;14000;52.056;8.510;2022-12-18T04:31:38;-10.40;99.90
26278;DHT22;14000;52.056;8.510;2022-12-18T04:34:03;-10.40;99.90
26278;DHT22;14000;52.056;8.510;2022-12-18T04:36:29;-10.40;99.90
26278;DHT22;14000;52.056;8.510;2022-12-18T04:38:55;-10.40;99.90
26278;DHT22;14000;52.056;8.510;2022-12-18T04:41:20;-10.40;99.90
26278;DHT22;14000;52.056;8.510;2022-12-18T04:43:46;-10.40;99.90
26278;DHT22;14000;52.056;8.510;2022-12-18T04:46:12;-10.40;99.90
26278;DHT22;14000;52.056;8.510;2022-12-18T04:48:38;-10.40;99.90
26278;DHT22;14000;52.056;8.510;2022-12-18T04:51:04;-10.40;99.90
26278;DHT22;14000;52.056;8.510;2022-12-18T04:53:31;-10.50;99.90
26278;DHT22;14000;52.056;8.510;2022-12-18T04:56:22;-10.50;99.90
26278;DHT22;14000;52.056;8.510;2022-12-18T04:58:48;-10.50;99.90
26278;DHT22;14000;52.056;8.510;2022-12-18T05:01:16;-10.50;99.90
26278;DHT22;14000;52.056;8.510;2022-12-18T05:03:42;-10.40;99.90
26278;DHT22;14000;52.056;8.510;2022-12-18T05:06:08;-10.50;99.90
26278;DHT22;14000;52.056;8.510;2022-12-18T05:08:34;-10.50;99.90
26278;DHT22;14000;52.056;8.510;2022-12-18T05:11:02;-10.50;99.90
26278;DHT22;14000;52.056;8.510;2022-12-18T05:13:29;-10.50;99.90
26278;DHT22;14000;52.056;8.510;2022-12-18T05:15:55;-10.50;99.90
26278;DHT22;14000;52.056;8.510;2022-12-18T05:18:22;-10.50;99.90
26278;DHT22;14000;52.056;8.510;2022-12-18T05:20:50;-10.50;99.90
26278;DHT22;14000;52.056;8.510;2022-12-18T05:23:15;-10.50;99.90
26278;DHT22;14000;52.056;8.510;2022-12-18T05:25:41;-10.60;99.90
26278;DHT22;14000;52.056;8.510;2022-12-18T05:28:07;-10.60;99.90
26278;DHT22;14000;52.056;8.510;2022-12-18T05:30:32;-10.60;99.90
26278;DHT22;14000;52.056;8.510;2022-12-18T05:32:58;-10.60;99.90
26278;DHT22;14000;52.056;8.510;2022-12-18T05:35:24;-10.70;99.90
26278;DHT22;14000;52.056;8.510;2022-12-18T05:37:50;-10.60;99.90
26278;DHT22;14000;52.056;8.510;2022-12-18T05:40:15;-10.70;99.90
26278;DHT22;14000;52.056;8.510;2022-12-18T05:42:41;-10.70;99.90
26278;DHT22;14000;52.056;8.510;2022-12-18T05:45:07;-10.70;99.90
26278;DHT22;14000;52.056;8.510;2022-12-18T05:47:32;-10.70;99.90
26278;DHT22;14000;52.056;8.510;2022-12-18T05:49:58;-10.70;99.90
26278;DHT22;14000;52.056;8.510;2022-12-18T05:52:23;-10.70;99.90
26278;DHT22;14000;52.056;8.510;2022-12-18T05:54:49;-10.80;99.90
26278;DHT22;14000;52.056;8.510;2022-12-18T05:57:15;-10.80;99.90
26278;DHT22;14000;52.056;8.510;2022-12-18T05:59:41;-10.80;99.90
26278;DHT22;14000;52.056;8.510;2022-12-18T06:02:06;-10.80;99.90
26278;DHT22;14000;52.056;8.510;2022-12-18T06:04:32;-10.80;99.90
26278;DHT22;14000;52.056;8.510;2022-12-18T06:06:58;-10.80;99.90
26278;DHT22;14000;52.056;8.510;2022-12-18T06:09:24;-10.80;99.90
26278;DHT22;14000;52.056;8.510;2022-12-18T06:11:51;-10.70;99.90
26278;DHT22;14000;52.056;8.510;2022-12-18T06:14:17;-10.70;99.90
26278;DHT22;14000;52.056;8.510;2022-12-18T06:16:42;-10.70;99.90
26278;DHT22;14000;52.056;8.510;2022-12-18T06:19:14;-10.70;99.90
26278;DHT22;14000;52.056;8.510;2022-12-18T06:21:40;-10.70;99.90
26278;DHT22;14000;52.056;8.510;2022-12-18T06:24:06;-10.70;99.90
26278;DHT22;14000;52.056;8.510;2022-12-18T06:26:31;-10.70;99.90
26278;DHT22;14000;52.056;8.510;2022-12-18T06:28:57;-10.70;99.90
26278;DHT22;14000;52.056;8.510;2022-12-18T06:31:23;-10.70;99.90
26278;DHT22;14000;52.056;8.510;2022-12-18T06:33:48;-10.80;99.90
26278;DHT22;14000;52.056;8.510;2022-12-18T06:36:14;-10.80;99.90
26278;DHT22;14000;52.056;8.510;2022-12-18T06:38:42;-10.80;99.90
26278;DHT22;14000;52.056;8.510;2022-12-18T06:41:14;-10.80;99.90
26278;DHT22;14000;52.056;8.510;2022-12-18T06:43:40;-10.80;99.90
26278;DHT22;14000;52.056;8.510;2022-12-18T06:46:05;-10.80;99.90
26278;DHT22;14000;52.056;8.510;2022-12-18T06:48:32;-10.80;99.90
26278;DHT22;14000;52.056;8.510;2022-12-18T06:50:58;-10.90;99.90
26278;DHT22;14000;52.056;8.510;2022-12-18T06:53:23;-10.90;99.90
26278;DHT22;14000;52.056;8.510;2022-12-18T06:55:49;-10.80;99.90
26278;DHT22;14000;52.056;8.510;2022-12-18T06:58:15;-10.80;99.90
26278;DHT22;14000;52.056;8.510;2022-12-18T07:00:41;-10.80;99.90
26278;DHT22;14000;52.056;8.510;2022-12-18T07:03:06;-10.80;99.90
26278;DHT22;14000;52.056;8.510;2022-12-18T07:05:32;-10.80;99.90
26278;DHT22;14000;52.056;8.510;2022-12-18T07:07:59;-10.80;99.90
26278;DHT22;14000;52.056;8.510;2022-12-18T07:10:25;-10.80;99.90
26278;DHT22;14000;52.056;8.510;2022-12-18T07:12:50;-10.80;99.90
26278;DHT22;14000;52.056;8.510;2022-12-18T07:15:16;-10.80;99.90
26278;DHT22;14000;52.056;8.510;2022-12-18T07:17:42;-10.80;99.90
26278;DHT22;14000;52.056;8.510;2022-12-18T07:20:08;-10.70;99.90
26278;DHT22;14000;52.056;8.510;2022-12-18T07:22:34;-10.80;99.90
26278;DHT22;14000;52.056;8.510;2022-12-18T07:24:59;-10.80;99.90
26278;DHT22;14000;52.056;8.510;2022-12-18T07:27:25;-10.80;99.90
26278;DHT22;14000;52.056;8.510;2022-12-18T07:29:50;-10.80;99.90
26278;DHT22;14000;52.056;8.510;2022-12-18T07:32:16;-10.80;99.90
26278;DHT22;14000;52.056;8.510;2022-12-18T07:34:41;-10.80;99.90
26278;DHT22;14000;52.056;8.510;2022-12-18T07:37:07;-10.80;99.90
26278;DHT22;14000;52.056;8.510;2022-12-18T07:39:33;-10.80;99.90
26278;DHT22;14000;52.056;8.510;2022-12-18T07:41:58;-10.80;99.90
26278;DHT22;14000;52.056;8.510;2022-12-18T07:44:42;-10.70;99.90
26278;DHT22;14000;52.056;8.510;2022-12-18T07:47:08;-10.70;99.90
26278;DHT22;14000;52.056;8.510;2022-12-18T07:49:33;-10.70;99.90
26278;DHT22;14000;52.056;8.510;2022-12-18T07:51:59;-10.70;99.90
26278;DHT22;14000;52.056;8.510;2022-12-18T07:54:25;-10.70;99.90
26278;DHT22;14000;52.056;8.510;2022-12-18T07:56:51;-10.60;99.90
26278;DHT22;14000;52.056;8.510;2022-12-18T07:59:17;-10.60;99.90
26278;DHT22;14000;52.056;8.510;2022-12-18T08:01:43;-10.50;99.90
26278;DHT22;14000;52.056;8.510;2022-12-18T08:04:09;-10.50;99.90
26278;DHT22;14000;52.056;8.510;2022-12-18T08:06:35;-10.40;99.90
26278;DHT22;14000;52.056;8.510;2022-12-18T08:09:00;-10.40;99.90
26278;DHT22;14000;52.056;8.510;2022-12-18T08:11:27;-10.30;99.90
26278;DHT22;14000;52.056;8.510;2022-12-18T08:13:53;-10.30;99.90
26278;DHT22;14000;52.056;8.510;2022-12-18T08:16:20;-10.30;99.90
26278;DHT22;14000;52.056;8.510;2022-12-18T08:18:45;-10.20;99.90
26278;DHT22;14000;52.056;8.510;2022-12-18T08:21:17;-10.20;99.90
26278;DHT22;14000;52.056;8.510;2022-12-18T08:23:44;-10.10;99.90
26278;DHT22;14000;52.056;8.510;2022-12-18T08:26:13;-10.10;99.90
26278;DHT22;14000;52.056;8.510;2022-12-18T08:28:40;-10.00;99.90
26278;DHT22;14000;52.056;8.510;2022-12-18T08:31:06;-9.90;99.90
26278;DHT22;14000;52.056;8.510;2022-12-18T08:33:33;-9.80;99.90
26278;DHT22;14000;52.056;8.510;2022-12-18T08:35:59;-9.70;99.90
26278;DHT22;14000;52.056;8.510;2022-12-18T08:38:25;-9.60;99.90
26278;DHT22;14000;52.056;8.510;2022-12-18T08:41:02;-9.40;99.90
26278;DHT22;14000;52.056;8.510;2022-12-18T08:43:28;-9.30;99.90
26278;DHT22;14000;52.056;8.510;2022-12-18T08:46:12;-9.10;99.90
26278;DHT22;14000;52.056;8.510;2022-12-18T08:48:37;-8.90;99.90
26278;DHT22;14000;52.056;8.510;2022-12-18T08:51:03;-8.80;99.90
26278;DHT22;14000;52.056;8.510;2022-12-18T08:53:29;-8.60;99.90
26278;DHT22;14000;52.056;8.510;2022-12-18T08:55:56;-8.50;99.90
26278;DHT22;14000;52.056;8.510;2022-12-18T08:58:22;-8.30;99.90
26278;DHT22;14000;52.056;8.510;2022-12-18T09:00:48;-8.20;99.90
26278;DHT22;14000;52.056;8.510;2022-12-18T09:03:15;-8.10;99.90
26278;DHT22;14000;52.056;8.510;2022-12-18T09:05:41;-8.00;99.90
26278;DHT22;14000;52.056;8.510;2022-12-18T09:08:07;-7.90;99.90
26278;DHT22;14000;52.056;8.510;2022-12-18T09:10:33;-7.80;99.90
26278;DHT22;14000;52.056;8.510;2022-12-18T09:12:59;-7.70;99.90
26278;DHT22;14000;52.056;8.510;2022-12-18T09:15:25;-7.60;99.90
26278;DHT22;14000;52.056;8.510;2022-12-18T09:17:51;-7.50;99.90
26278;DHT22;14000;52.056;8.510;2022-12-18T09:20:18;-7.30;99.90
26278;DHT22;14000;52.056;8.510;2022-12-18T09:22:44;-7.20;99.90
26278;DHT22;14000;52.056;8.510;2022-12-18T09:25:09;-7.00;99.90
26278;DHT22;14000;52.056;8.510;2022-12-18T09:27:35;-6.90;99.90
26278;DHT22;14000;52.056;8.510;2022-12-18T09:30:01;-6.80;99.90
26278;DHT22;14000;52.056;8.510;2022-12-18T09:32:26;-6.70;99.90
26278;DHT22;14000;52.056;8.510;2022-12-18T09:34:52;-6.60;99.90
26278;DHT22;14000;52.056;8.510;2022-12-18T09:37:17;-6.50;99.90
26278;DHT22;14000;52.056;8.510;2022-12-18T09:39:43;-6.40;99.90
26278;DHT22;14000;52.056;8.510;2022-12-18T09:42:16;-6.30;99.90
26278;DHT22;14000;52.056;8.510;2022-12-18T09:44:46;-6.20;99.90
26278;DHT22;14000;52.056;8.510;2022-12-18T09:47:34;-6.20;99.90
26278;DHT22;14000;52.056;8.510;2022-12-18T09:50:05;-6.10;99.90
26278;DHT22;14000;52.056;8.510;2022-12-18T09:52:43;-6.10;99.90
26278;DHT22;14000;52.056;8.510;2022-12-18T09:55:31;-6.00;99.90
26278;DHT22;14000;52.056;8.510;2022-12-18T09:58:00;-5.90;99.90
26278;DHT22;14000;52.056;8.510;2022-12-18T10:00:28;-5.80;99.90
26278;DHT22;14000;52.056;8.510;2022-12-18T10:02:59;-5.70;99.90
26278;DHT22;14000;52.056;8.510;2022-12-18T10:05:41;-5.60;99.90
26278;DHT22;14000;52.056;8.510;2022-12-18T10:08:17;-5.40;99.90
26278;DHT22;14000;52.056;8.510;2022-12-18T10:11:32;-5.30;99.90
26278;DHT22;14000;52.056;8.510;2022-12-18T10:13:57;-5.20;99.90
26278;DHT22;14000;52.056;8.510;2022-12-18T10:19:37;-5.00;99.90
26278;DHT22;14000;52.056;8.510;2022-12-18T10:22:25;-5.00;99.90
26278;DHT22;14000;52.056;8.510;2022-12-18T10:27:39;-4.70;99.90
26278;DHT22;14000;52.056;8.510;2022-12-18T10:30:14;-4.50;99.90
26278;DHT22;14000;52.056;8.510;2022-12-18T10:32:40;-4.40;99.90
26278;DHT22;14000;52.056;8.510;2022-12-18T10:35:15;-4.30;99.90
26278;DHT22;14000;52.056;8.510;2022-12-18T10:40:56;-3.90;99.90
26278;DHT22;14000;52.056;8.510;2022-12-18T10:43:28;-3.80;99.90
26278;DHT22;14000;52.056;8.510;2022-12-18T10:48:55;-3.50;99.90
26278;DHT22;14000;52.056;8.510;2022-12-18T10:51:30;-3.40;99.90
26278;DHT22;14000;52.056;8.510;2022-12-18T10:53:57;-3.30;99.90
26278;DHT22;14000;52.056;8.510;2022-12-18T10:56:24;-3.10;99.90
26278;DHT22;14000;52.056;8.510;2022-12-18T10:59:00;-3.00;99.90
26278;DHT22;14000;52.056;8.510;2022-12-18T11:01:27;-2.90;99.90
26278;DHT22;14000;52.056;8.510;2022-12-18T11:06:21;-2.70;99.90
26278;DHT22;14000;52.056;8.510;2022-12-18T11:11:26;-2.50;99.90
26278;DHT22;14000;52.056;8.510;2022-12-18T11:16:28;-2.20;99.90
26278;DHT22;14000;52.056;8.510;2022-12-18T11:22:26;-2.00;99.90
26278;DHT22;14000;52.056;8.510;2022-12-18T11:25:07;-2.00;99.90
26278;DHT22;14000;52.056;8.510;2022-12-18T11:27:52;-1.80;99.90
26278;DHT22;14000;52.056;8.510;2022-12-18T11:35:25;-0.50;99.90
26278;DHT22;14000;52.056;8.510;2022-12-18T11:37:57;-0.20;99.90
26278;DHT22;14000;52.056;8.510;2022-12-18T11:40:34;0.00;99.90
26278;DHT22;14000;52.056;8.510;2022-12-18T11:43:13;0.20;99.90
26278;DHT22;14000;52.056;8.510;2022-12-18T11:45:51;0.20;99.90
26278;DHT22;14000;52.056;8.510;2022-12-18T11:48:19;0.20;99.90
26278;DHT22;14000;52.056;8.510;2022-12-18T11:50:57;-0.20;99.90
26278;DHT22;14000;52.056;8.510;2022-12-18T11:53:25;-0.20;99.90
26278;DHT22;14000;52.056;8.510;2022-12-18T12:01:53;-0.60;99.90
26278;DHT22;14000;52.056;8.510;2022-12-18T12:16:14;-0.80;99.90
26278;DHT22;14000;52.056;8.510;2022-12-18T12:25:02;-1.10;99.90
26278;DHT22;14000;52.056;8.510;2022-12-18T12:27:45;-1.10;99.90
26278;DHT22;14000;52.056;8.510;2022-12-18T12:30:35;-1.10;99.90
26278;DHT22;14000;52.056;8.510;2022-12-18T12:33:22;-1.10;99.90
26278;DHT22;14000;52.056;8.510;2022-12-18T12:38:43;-1.20;99.90
26278;DHT22;14000;52.056;8.510;2022-12-18T12:41:13;-1.20;99.90
26278;DHT22;14000;52.056;8.510;2022-12-18T12:44:01;-1.10;99.90
26278;DHT22;14000;52.056;8.510;2022-12-18T12:46:27;-1.10;99.90
26278;DHT22;14000;52.056;8.510;2022-12-18T12:49:01;-1.20;99.90
26278;DHT22;14000;52.056;8.510;2022-12-18T12:51:35;-1.10;99.90
26278;DHT22;14000;52.056;8.510;2022-12-18T12:54:04;-1.10;99.90
26278;DHT22;14000;52.056;8.510;2022-12-18T12:56:50;-1.10;99.90
26278;DHT22;14000;52.056;8.510;2022-12-18T12:59:45;-1.10;99.90
26278;DHT22;14000;52.056;8.510;2022-12-18T13:02:33;-1.00;99.90
26278;DHT22;14000;52.056;8.510;2022-12-18T13:05:18;-1.00;99.90
26278;DHT22;14000;52.056;8.510;2022-12-18T13:07:55;-1.10;99.90
26278;DHT22;14000;52.056;8.510;2022-12-18T13:10:31;-1.20;99.90
26278;DHT22;14000;52.056;8.510;2022-12-18T13:15:34;-1.10;99.90
26278;DHT22;14000;52.056;8.510;2022-12-18T13:20:44;-1.10;99.90
26278;DHT22;14000;52.056;8.510;2022-12-18T13:23:29;-1.20;99.90
26278;DHT22;14000;52.056;8.510;2022-12-18T13:30:59;-1.10;99.90
26278;DHT22;14000;52.056;8.510;2022-12-18T13:43:22;-1.20;99.90
26278;DHT22;14000;52.056;8.510;2022-12-18T13:46:01;-1.20;99.90
26278;DHT22;14000;52.056;8.510;2022-12-18T13:48:30;-1.20;99.90
26278;DHT22;14000;52.056;8.510;2022-12-18T13:51:08;-1.20;99.90
26278;DHT22;14000;52.056;8.510;2022-12-18T13:53:44;-1.20;99.90
26278;DHT22;14000;52.056;8.510;2022-12-18T13:56:22;-1.20;99.90
26278;DHT22;14000;52.056;8.510;2022-12-18T14:01:33;-1.20;99.90
26278;DHT22;14000;52.056;8.510;2022-12-18T14:04:10;-1.20;99.90
26278;DHT22;14000;52.056;8.510;2022-12-18T14:06:36;-1.10;99.90
26278;DHT22;14000;52.056;8.510;2022-12-18T14:09:02;-1.20;99.90
26278;DHT22;14000;52.056;8.510;2022-12-18T14:11:29;-1.20;99.90
26278;DHT22;14000;52.056;8.510;2022-12-18T14:13:56;-1.20;99.90
26278;DHT22;14000;52.056;8.510;2022-12-18T14:16:22;-1.30;99.90
26278;DHT22;14000;52.056;8.510;2022-12-18T14:18:49;-1.30;99.90
26278;DHT22;14000;52.056;8.510;2022-12-18T14:21:26;-1.20;99.90
26278;DHT22;14000;52.056;8.510;2022-12-18T14:26:38;-1.30;99.90
26278;DHT22;14000;52.056;8.510;2022-12-18T14:29:27;-1.30;99.90
26278;DHT22;14000;52.056;8.510;2022-12-18T14:34:34;-1.20;99.90
26278;DHT22;14000;52.056;8.510;2022-12-18T14:36:59;-1.20;99.90
26278;DHT22;14000;52.056;8.510;2022-12-18T14:39:25;-1.20;99.90
26278;DHT22;14000;52.056;8.510;2022-12-18T14:41:51;-1.30;99.90
26278;DHT22;14000;52.056;8.510;2022-12-18T14:44:17;-1.30;99.90
26278;DHT22;14000;52.056;8.510;2022-12-18T14:46:44;-1.40;99.90
26278;DHT22;14000;52.056;8.510;2022-12-18T14:52:00;-1.30;99.90
26278;DHT22;14000;52.056;8.510;2022-12-18T14:54:27;-1.30;99.90
26278;DHT22;14000;52.056;8.510;2022-12-18T14:59:24;-1.20;99.90
26278;DHT22;14000;52.056;8.510;2022-12-18T15:04:43;-1.20;99.90
26278;DHT22;14000;52.056;8.510;2022-12-18T15:07:19;-1.20;99.90
26278;DHT22;14000;52.056;8.510;2022-12-18T15:12:42;-1.20;99.90
26278;DHT22;14000;52.056;8.510;2022-12-18T15:17:59;-1.30;99.90
26278;DHT22;14000;52.056;8.510;2022-12-18T15:20:25;-1.30;99.90
26278;DHT22;14000;52.056;8.510;2022-12-18T15:22:50;-1.30;99.90
26278;DHT22;14000;52.056;8.510;2022-12-18T15:25:32;-1.30;99.90
26278;DHT22;14000;52.056;8.510;2022-12-18T15:27:59;-1.30;99.90
26278;DHT22;14000;52.056;8.510;2022-12-18T15:30:25;-1.30;99.90
26278;DHT22;14000;52.056;8.510;2022-12-18T15:32:52;-1.20;99.90
26278;DHT22;14000;52.056;8.510;2022-12-18T15:35:38;-1.30;99.90
26278;DHT22;14000;52.056;8.510;2022-12-18T15:38:03;-1.20;99.90
26278;DHT22;14000;52.056;8.510;2022-12-18T15:40:29;-1.30;99.90
26278;DHT22;14000;52.056;8.510;2022-12-18T15:42:55;-1.30;99.90
26278;DHT22;14000;52.056;8.510;2022-12-18T15:45:56;-1.30;99.90
26278;DHT22;14000;52.056;8.510;2022-12-18T15:48:22;-1.30;99.90
26278;DHT22;14000;52.056;8.510;2022-12-18T15:50:53;-1.30;99.90
26278;DHT22;14000;52.056;8.510;2022-12-18T15:53:19;-1.40;99.90
26278;DHT22;14000;52.056;8.510;2022-12-18T15:55:45;-1.30;99.90
26278;DHT22;14000;52.056;8.510;2022-12-18T15:58:29;-1.40;99.90
26278;DHT22;14000;52.056;8.510;2022-12-18T16:00:56;-1.30;99.90
26278;DHT22;14000;52.056;8.510;2022-12-18T16:03:23;-1.30;99.90
26278;DHT22;14000;52.056;8.510;2022-12-18T16:05:49;-1.30;99.90
26278;DHT22;14000;52.056;8.510;2022-12-18T16:08:14;-1.40;99.90
26278;DHT22;14000;52.056;8.510;2022-12-18T16:10:40;-1.40;99.90
26278;DHT22;14000;52.056;8.510;2022-12-18T16:13:09;-1.40;99.90
26278;DHT22;14000;52.056;8.510;2022-12-18T16:15:35;-1.40;99.90
26278;DHT22;14000;52.056;8.510;2022-12-18T16:18:00;-1.40;99.90
26278;DHT22;14000;52.056;8.510;2022-12-18T16:20:26;-1.40;99.90
26278;DHT22;14000;52.056;8.510;2022-12-18T16:22:51;-1.30;99.90
26278;DHT22;14000;52.056;8.510;2022-12-18T16:25:23;-1.30;99.90
26278;DHT22;14000;52.056;8.510;2022-12-18T16:27:50;-1.30;99.90
26278;DHT22;14000;52.056;8.510;2022-12-18T16:30:18;-1.20;99.90
26278;DHT22;14000;52.056;8.510;2022-12-18T16:32:44;-1.20;99.90
26278;DHT22;14000;52.056;8.510;2022-12-18T16:35:14;-1.20;99.90
26278;DHT22;14000;52.056;8.510;2022-12-18T16:37:41;-1.20;99.90
26278;DHT22;14000;52.056;8.510;2022-12-18T16:40:09;-1.20;99.90
26278;DHT22;14000;52.056;8.510;2022-12-18T16:42:37;-1.10;99.90
26278;DHT22;14000;52.056;8.510;2022-12-18T16:45:04;-1.00;99.90
26278;DHT22;14000;52.056;8.510;2022-12-18T16:47:29;-1.00;99.90
26278;DHT22;14000;52.056;8.510;2022-12-18T16:49:55;-1.10;99.90
26278;DHT22;14000;52.056;8.510;2022-12-18T16:52:21;-1.00;99.90
26278;DHT22;14000;52.056;8.510;2022-12-18T16:54:46;-1.00;99.90
26278;DHT22;14000;52.056;8.510;2022-12-18T16:57:14;-1.00;99.90
26278;DHT22;14000;52.056;8.510;2022-12-18T16:59:40;-1.00;99.90
26278;DHT22;14000;52.056;8.510;2022-12-18T17:02:10;-0.90;99.90
26278;DHT22;14000;52.056;8.510;2022-12-18T17:04:37;-0.90;99.90
26278;DHT22;14000;52.056;8.510;2022-12-18T17:07:02;-0.90;99.90
26278;DHT22;14000;52.056;8.510;2022-12-18T17:09:28;-1.00;99.90
26278;DHT22;14000;52.056;8.510;2022-12-18T17:11:54;-1.00;99.90
26278;DHT22;14000;52.056;8.510;2022-12-18T17:14:22;-1.00;99.90
26278;DHT22;14000;52.056;8.510;2022-12-18T17:16:48;-0.90;99.90
26278;DHT22;14000;52.056;8.510;2022-12-18T17:19:14;-0.90;99.90
26278;DHT22;14000;52.056;8.510;2022-12-18T17:21:41;-0.90;99.90
26278;DHT22;14000;52.056;8.510;2022-12-18T17:24:07;-0.90;99.90
26278;DHT22;14000;52.056;8.510;2022-12-18T17:26:33;-0.90;99.90
26278;DHT22;14000;52.056;8.510;2022-12-18T17:28:58;-0.90;99.90
26278;DHT22;14000;52.056;8.510;2022-12-18T17:31:27;-0.90;99.90
26278;DHT22;14000;52.056;8.510;2022-12-18T17:33:54;-0.80;99.90
26278;DHT22;14000;52.056;8.510;2022-12-18T17:36:21;-0.90;99.90
26278;DHT22;14000;52.056;8.510;2022-12-18T17:38:51;-0.90;99.90
26278;DHT22;14000;52.056;8.510;2022-12-18T17:41:17;-0.90;99.90
26278;DHT22;14000;52.056;8.510;2022-12-18T17:43:43;-0.90;99.90